createdAt,value
2023-03-14T00:00:01.819Z,25
2023-03-14T00:02:32.349Z,24
2023-03-14T00:05:02.852Z,21
2023-03-14T00:07:34.293Z,22
2023-03-14T00:10:05.067Z,20
2023-03-14T00:12:35.627Z,24
2023-03-14T00:15:06.380Z,24
2023-03-14T00:17:36.759Z,24
2023-03-14T00:20:08.099Z,24
2023-03-14T00:22:39.183Z,23
2023-03-14T00:25:10.187Z,23
2023-03-14T00:27:41.284Z,20
2023-03-14T00:30:12.532Z,17
2023-03-14T00:32:43.446Z,23
2023-03-14T00:35:13.961Z,20
2023-03-14T00:37:44.880Z,20
2023-03-14T00:40:15.543Z,19
2023-03-14T00:42:46.383Z,31
2023-03-14T00:45:17.532Z,32
2023-03-14T00:47:48.818Z,20
2023-03-14T00:50:19.336Z,25
2023-03-14T00:52:50.247Z,19
2023-03-14T00:55:21.052Z,19
2023-03-14T00:57:51.726Z,20
2023-03-14T01:00:22.295Z,19
2023-03-14T01:02:53.255Z,23
2023-03-14T01:05:23.817Z,21
2023-03-14T01:07:54.322Z,20
2023-03-14T01:10:25.297Z,22
2023-03-14T01:12:56.126Z,23
2023-03-14T01:15:26.806Z,21
2023-03-14T01:17:57.742Z,21
2023-03-14T01:20:28.488Z,21
2023-03-14T01:23:00.099Z,20
2023-03-14T01:25:30.752Z,21
2023-03-14T01:28:01.444Z,20
2023-03-14T01:30:32.003Z,23
2023-03-14T01:33:02.961Z,25
2023-03-14T01:35:33.642Z,19
2023-03-14T01:38:04.628Z,19
2023-03-14T01:40:35.174Z,19
2023-03-14T01:43:05.611Z,19
2023-03-14T01:45:37.013Z,22
2023-03-14T01:48:08.459Z,21
2023-03-14T01:50:39.117Z,20
2023-03-14T01:53:09.980Z,21
2023-03-14T01:55:41.904Z,21
2023-03-14T01:58:12.873Z,25
2023-03-14T02:00:43.550Z,21
2023-03-14T02:03:13.794Z,27
2023-03-14T02:05:44.308Z,22
2023-03-14T02:08:15.341Z,21
2023-03-14T02:10:46.039Z,23
2023-03-14T02:13:16.475Z,21
2023-03-14T02:15:47.304Z,24
2023-03-14T02:18:16.467Z,27
2023-03-14T02:20:47.144Z,20
2023-03-14T02:23:18.142Z,20
2023-03-14T02:25:49.139Z,21
2023-03-14T02:28:18.347Z,20
2023-03-14T02:30:48.979Z,21
2023-03-14T02:33:20.171Z,20
2023-03-14T02:35:50.631Z,20
2023-03-14T02:38:21.075Z,24
2023-03-14T02:40:52.203Z,21
2023-03-14T02:43:23.121Z,20
2023-03-14T02:45:54.198Z,21
2023-03-14T02:48:24.857Z,16
2023-03-14T02:50:56.171Z,22
2023-03-14T02:53:26.412Z,20
2023-03-14T02:55:57.468Z,20
2023-03-14T02:58:28.672Z,19
2023-03-14T03:00:59.585Z,23
2023-03-14T03:03:30.310Z,20
2023-03-14T03:06:00.964Z,20
2023-03-14T03:08:31.922Z,20
2023-03-14T03:11:01.155Z,24
2023-03-14T03:13:31.896Z,23
2023-03-14T03:16:02.865Z,20
2023-03-14T03:18:33.631Z,21
2023-03-14T03:21:04.676Z,29
2023-03-14T03:23:35.342Z,27
2023-03-14T03:26:06.195Z,21
2023-03-14T03:28:35.188Z,24
2023-03-14T03:31:05.883Z,20
2023-03-14T03:33:35.685Z,20
2023-03-14T03:36:06.517Z,20
2023-03-14T03:38:37.670Z,27
2023-03-14T03:41:08.542Z,20
2023-03-14T03:43:44.289Z,16
2023-03-14T03:46:15.186Z,24
2023-03-14T03:48:47.215Z,17
2023-03-14T03:51:18.499Z,20
2023-03-14T03:53:49.609Z,22
2023-03-14T03:56:20.346Z,20
2023-03-14T03:58:52.114Z,20
2023-03-14T04:01:22.737Z,20
2023-03-14T04:03:56.857Z,19
2023-03-14T04:06:27.811Z,25
2023-03-14T04:08:58.671Z,20
2023-03-14T04:11:29.850Z,17
2023-03-14T04:14:00.623Z,24
2023-03-14T04:16:31.510Z,26
2023-03-14T04:19:02.066Z,20
2023-03-14T04:21:32.599Z,20
2023-03-14T04:24:03.767Z,21
2023-03-14T04:26:34.778Z,30
2023-03-14T04:29:05.756Z,24
2023-03-14T04:31:35.303Z,32
2023-03-14T04:34:05.726Z,24
2023-03-14T04:36:39.181Z,25
2023-03-14T04:39:07.355Z,24
2023-03-14T04:41:38.584Z,28
2023-03-14T04:44:09.428Z,27
2023-03-14T04:46:40.400Z,26
2023-03-14T04:49:11.234Z,29
2023-03-14T04:51:43.135Z,24
2023-03-14T04:54:14.963Z,28
2023-03-14T04:56:46.211Z,22
2023-03-14T04:59:16.942Z,21
2023-03-14T05:01:47.608Z,25
2023-03-14T05:04:18.236Z,28
2023-03-14T05:06:49.479Z,29
2023-03-14T05:09:20.476Z,24
2023-03-14T05:11:51.226Z,24
2023-03-14T05:14:21.923Z,27
2023-03-14T05:16:52.296Z,25
2023-03-14T05:19:23.212Z,28
2023-03-14T05:21:54.159Z,33
2023-03-14T05:24:22.778Z,40
2023-03-14T05:26:54.515Z,30
2023-03-14T05:29:25.167Z,35
2023-03-14T05:31:55.820Z,42
2023-03-14T05:34:26.963Z,44
2023-03-14T05:36:57.853Z,31
2023-03-14T05:39:28.962Z,36
2023-03-14T05:41:59.957Z,25
2023-03-14T05:44:30.692Z,30
2023-03-14T05:47:01.305Z,28
2023-03-14T05:49:32.446Z,41
2023-03-14T05:52:02.956Z,33
2023-03-14T05:54:33.598Z,32
2023-03-14T05:57:04.029Z,36
2023-03-14T05:59:34.893Z,32
2023-03-14T06:02:05.790Z,37
2023-03-14T06:04:36.297Z,26
2023-03-14T06:07:06.844Z,20
2023-03-14T06:09:37.771Z,28
2023-03-14T06:12:08.602Z,29
2023-03-14T06:14:39.357Z,33
2023-03-14T06:17:10.290Z,30
2023-03-14T06:19:41.044Z,31
2023-03-14T06:22:11.697Z,30
2023-03-14T06:24:42.450Z,31
2023-03-14T06:27:12.990Z,25
2023-03-14T06:29:42.223Z,28
2023-03-14T06:32:11.632Z,26
2023-03-14T06:34:42.134Z,24
2023-03-14T06:37:12.700Z,29
2023-03-14T06:39:43.541Z,32
2023-03-14T06:42:14.637Z,35
2023-03-14T06:44:45.042Z,25
2023-03-14T06:47:15.661Z,31
2023-03-14T06:49:46.037Z,23
2023-03-14T06:52:16.543Z,32
2023-03-14T06:54:47.986Z,27
2023-03-14T06:57:18.757Z,25
2023-03-14T06:59:52.789Z,23
2023-03-14T07:02:29.679Z,24
2023-03-14T07:04:53.964Z,36
2023-03-14T07:07:24.201Z,32
2023-03-14T07:09:54.885Z,25
2023-03-14T07:12:25.084Z,28
2023-03-14T07:14:57.607Z,36
2023-03-14T07:17:26.622Z,27
2023-03-14T07:19:57.219Z,28
2023-03-14T07:22:28.060Z,25
2023-03-14T07:24:58.558Z,28
2023-03-14T07:27:29.555Z,25
2023-03-14T07:30:00.267Z,22
2023-03-14T07:32:30.648Z,33
2023-03-14T07:35:01.567Z,28
2023-03-14T07:37:32.378Z,28
2023-03-14T07:40:02.893Z,27
2023-03-14T07:42:33.412Z,34
2023-03-14T07:45:03.883Z,27
2023-03-14T07:47:34.573Z,33
2023-03-14T07:50:05.592Z,25
2023-03-14T07:52:35.864Z,42
2023-03-14T07:55:06.307Z,35
2023-03-14T07:57:37.094Z,23
2023-03-14T08:00:07.553Z,24
2023-03-14T08:02:38.560Z,23
2023-03-14T08:05:09.026Z,31
2023-03-14T08:07:39.146Z,33
2023-03-14T08:10:10.302Z,28
2023-03-14T08:12:41.119Z,26
2023-03-14T08:15:11.453Z,24
2023-03-14T08:17:42.536Z,28
2023-03-14T08:20:14.234Z,34
2023-03-14T08:22:44.572Z,59
2023-03-14T08:25:14.712Z,35
2023-03-14T08:27:47.076Z,27
2023-03-14T08:30:20.570Z,25
2023-03-14T08:32:51.476Z,23
2023-03-14T08:35:21.292Z,39
2023-03-14T08:37:53.234Z,25
2023-03-14T08:40:23.903Z,28
2023-03-14T08:42:56.566Z,32
2023-03-14T08:45:28.382Z,34
2023-03-14T08:48:00.886Z,21
2023-03-14T08:50:35.393Z,38
2023-03-14T08:53:10.637Z,20
2023-03-14T08:55:46.136Z,20
2023-03-14T09:00:51.076Z,37
2023-03-14T09:03:26.154Z,29
2023-03-14T09:05:54.960Z,33
2023-03-14T09:08:25.582Z,23
2023-03-14T09:10:56.288Z,20
2023-03-14T09:13:26.946Z,29
2023-03-14T09:15:58.301Z,26
2023-03-14T09:18:35.399Z,24
2023-03-14T09:21:06.172Z,21
2023-03-14T09:23:37.042Z,33
2023-03-14T09:26:08.771Z,23
2023-03-14T09:28:39.865Z,22
2023-03-14T09:31:10.546Z,25
2023-03-14T09:33:42.354Z,31
2023-03-14T09:36:19.352Z,19
2023-03-14T09:38:50.448Z,22
2023-03-14T09:41:23.248Z,24
2023-03-14T09:43:57.081Z,24
2023-03-14T09:46:36.780Z,24
2023-03-14T09:49:09.134Z,21
2023-03-14T09:51:45.064Z,32
2023-03-14T09:54:16.491Z,24
2023-03-14T09:56:46.775Z,23
2023-03-14T09:59:16.174Z,28
2023-03-14T10:01:52.629Z,20
2023-03-14T10:04:25.238Z,21
2023-03-14T10:07:00.885Z,36
2023-03-14T10:09:33.886Z,19
2023-03-14T10:12:11.363Z,23
2023-03-14T10:14:38.660Z,20
2023-03-14T10:17:09.423Z,27
2023-03-14T10:19:40.295Z,19
2023-03-14T10:22:21.050Z,24
2023-03-14T10:24:54.339Z,27
2023-03-14T10:27:24.781Z,21
2023-03-14T10:30:01.257Z,25
2023-03-14T10:32:31.995Z,25
2023-03-14T10:35:02.467Z,27
2023-03-14T10:37:40.955Z,24
2023-03-14T10:40:17.679Z,20
2023-03-14T10:45:30.676Z,22
2023-03-14T10:50:46.091Z,18
2023-03-14T10:53:27.138Z,12
2023-03-14T10:55:59.175Z,34
2023-03-14T10:58:32.989Z,16
2023-03-14T11:03:44.268Z,12
2023-03-14T11:06:23.596Z,12
2023-03-14T11:08:57.035Z,20
2023-03-14T11:11:30.484Z,18
2023-03-14T11:14:10.043Z,20
2023-03-14T11:16:42.413Z,25
2023-03-14T11:19:17.687Z,14
2023-03-14T11:21:48.925Z,19
2023-03-14T11:24:22.972Z,19
2023-03-14T11:26:55.480Z,21
2023-03-14T11:29:28.340Z,19
2023-03-14T11:32:03.816Z,20
2023-03-14T11:34:39.346Z,22
2023-03-14T11:37:09.870Z,19
2023-03-14T11:39:43.330Z,23
2023-03-14T11:42:13.729Z,23
2023-03-14T11:44:44.214Z,19
2023-03-14T11:47:14.869Z,20
2023-03-14T11:49:46.366Z,21
2023-03-14T11:52:20.251Z,18
2023-03-14T11:54:51.099Z,16
2023-03-14T11:57:23.396Z,20
2023-03-14T11:59:57.542Z,20
2023-03-14T12:02:28.903Z,25
2023-03-14T12:04:59.363Z,23
2023-03-14T12:07:29.647Z,21
2023-03-14T12:10:00.469Z,16
2023-03-14T12:12:31.569Z,19
2023-03-14T12:15:01.809Z,23
2023-03-14T12:17:33.496Z,24
2023-03-14T12:20:06.255Z,22
2023-03-14T12:22:36.543Z,23
2023-03-14T12:27:46.370Z,17
2023-03-14T12:30:20.277Z,28
2023-03-14T12:32:57.845Z,19
2023-03-14T12:35:28.704Z,21
2023-03-14T12:38:01.435Z,22
2023-03-14T12:40:33.046Z,24
2023-03-14T12:43:04.333Z,17
2023-03-14T12:45:35.348Z,25
2023-03-14T12:48:06.702Z,23
2023-03-14T12:50:44.921Z,16
2023-03-14T12:53:15.738Z,22
2023-03-14T12:55:47.614Z,24
2023-03-14T12:58:18.029Z,23
2023-03-14T13:00:48.709Z,28
2023-03-14T13:03:25.481Z,18
2023-03-14T13:06:03.332Z,24
2023-03-14T13:08:34.749Z,36
2023-03-14T13:11:07.166Z,20
2023-03-14T13:13:40.550Z,21
2023-03-14T13:16:11.242Z,21
2023-03-14T13:18:42.103Z,17
2023-03-14T13:21:11.653Z,21
2023-03-14T13:23:42.677Z,19
2023-03-14T13:26:15.356Z,16
2023-03-14T13:28:44.378Z,24
2023-03-14T13:31:15.263Z,21
2023-03-14T13:33:46.313Z,18
2023-03-14T13:36:19.883Z,18
2023-03-14T13:38:51.582Z,20
2023-03-14T13:41:23.116Z,31
2023-03-14T13:43:53.754Z,39
2023-03-14T13:46:22.770Z,27
2023-03-14T13:48:53.257Z,24
2023-03-14T13:51:22.702Z,19
2023-03-14T13:53:52.795Z,28
2023-03-14T13:56:24.720Z,24
2023-03-14T13:58:55.721Z,24
2023-03-14T14:01:33.469Z,16
2023-03-14T14:04:04.994Z,20
2023-03-14T14:06:39.119Z,24
2023-03-14T14:09:11.870Z,17
2023-03-14T14:11:49.014Z,23
2023-03-14T14:14:14.656Z,21
2023-03-14T14:16:45.331Z,21
2023-03-14T14:19:15.700Z,22
2023-03-14T14:21:49.060Z,23
2023-03-14T14:24:19.541Z,22
2023-03-14T14:26:50.327Z,25
2023-03-14T14:29:19.947Z,45
2023-03-14T14:31:52.433Z,49
2023-03-14T14:34:22.870Z,28
2023-03-14T14:36:53.091Z,24
2023-03-14T14:39:26.460Z,28
2023-03-14T14:41:58.491Z,28
2023-03-14T14:44:33.681Z,20
2023-03-14T14:47:04.135Z,16
2023-03-14T14:49:32.861Z,31
2023-03-14T14:52:03.630Z,27
2023-03-14T14:54:39.252Z,28
2023-03-14T14:57:11.076Z,32
2023-03-14T14:59:42.592Z,25
2023-03-14T15:04:49.576Z,28
2023-03-14T15:07:28.195Z,23
2023-03-14T15:09:59.588Z,36
2023-03-14T15:12:33.171Z,20
2023-03-14T15:15:09.932Z,22
2023-03-14T15:17:40.793Z,18
2023-03-14T15:20:19.508Z,26
2023-03-14T15:22:54.966Z,29
2023-03-14T15:25:43.821Z,27
2023-03-14T15:27:56.133Z,24
2023-03-14T15:30:26.398Z,21
2023-03-14T15:32:58.595Z,25
2023-03-14T15:35:27.515Z,24
2023-03-14T15:38:05.196Z,27
2023-03-14T15:40:37.932Z,23
2023-03-14T15:45:52.230Z,21
2023-03-14T15:48:29.478Z,31
2023-03-14T15:50:58.340Z,28
2023-03-14T15:53:38.073Z,20
2023-03-14T15:56:17.297Z,29
2023-03-14T15:58:49.759Z,38
2023-03-14T16:01:24.845Z,31
2023-03-14T16:03:59.045Z,29
2023-03-14T16:06:29.317Z,25
2023-03-14T16:08:59.589Z,26
2023-03-14T16:11:29.981Z,32
2023-03-14T16:14:01.959Z,28
2023-03-14T16:16:33.133Z,27
2023-03-14T16:19:07.084Z,24
2023-03-14T16:21:37.206Z,28
2023-03-14T16:24:08.393Z,28
2023-03-14T16:26:38.703Z,28
2023-03-14T16:29:09.507Z,24
2023-03-14T16:31:39.790Z,31
2023-03-14T16:34:14.001Z,27
2023-03-14T16:36:47.381Z,30
2023-03-14T16:39:20.771Z,28
2023-03-14T16:41:52.594Z,48
2023-03-14T16:44:22.351Z,24
2023-03-14T16:46:56.419Z,50
2023-03-14T16:49:26.889Z,29
2023-03-14T16:51:57.507Z,24
2023-03-14T16:54:27.119Z,43
2023-03-14T16:56:57.606Z,40
2023-03-14T16:59:28.189Z,27
2023-03-14T17:02:01.028Z,32
2023-03-14T17:04:31.473Z,32
2023-03-14T17:09:43.551Z,36
2023-03-14T17:15:03.720Z,31
2023-03-14T17:17:35.487Z,32
2023-03-14T17:20:09.162Z,36
2023-03-14T17:22:39.688Z,46
2023-03-14T17:25:14.086Z,28
2023-03-14T17:27:46.158Z,33
2023-03-14T17:30:15.596Z,34
2023-03-14T17:32:46.046Z,36
2023-03-14T17:35:25.511Z,34
2023-03-14T17:37:55.168Z,40
2023-03-14T17:40:29.366Z,39
2023-03-14T17:42:59.035Z,53
2023-03-14T17:45:38.172Z,40
2023-03-14T17:48:10.481Z,35
2023-03-14T17:50:41.278Z,33
2023-03-14T17:53:20.402Z,32
2023-03-14T17:55:50.891Z,39
2023-03-14T17:58:22.694Z,48
2023-03-14T18:00:56.219Z,44
2023-03-14T18:03:28.694Z,40
2023-03-14T18:06:01.743Z,44
2023-03-14T18:08:32.157Z,41
2023-03-14T18:11:04.283Z,37
2023-03-14T18:16:10.750Z,48
2023-03-14T18:18:40.635Z,42
2023-03-14T18:21:20.417Z,43
2023-03-14T18:24:00.968Z,33
2023-03-14T18:26:33.384Z,44
2023-03-14T18:29:12.464Z,43
2023-03-14T18:31:51.364Z,37
2023-03-14T18:34:24.193Z,36
2023-03-14T18:36:54.569Z,44
2023-03-14T18:39:25.780Z,48
2023-03-14T18:42:00.835Z,43
2023-03-14T18:44:29.514Z,43
2023-03-14T18:47:03.979Z,46
2023-03-14T18:49:34.300Z,37
2023-03-14T18:52:05.723Z,41
2023-03-14T18:54:34.634Z,38
2023-03-14T18:57:08.865Z,32
2023-03-14T18:59:39.192Z,33
2023-03-14T19:02:16.589Z,37
2023-03-14T19:04:46.979Z,37
2023-03-14T19:07:17.341Z,52
2023-03-14T19:09:48.826Z,50
2023-03-14T19:12:24.909Z,42
2023-03-14T19:14:57.107Z,36
2023-03-14T19:17:30.076Z,36
2023-03-14T19:20:00.480Z,40
2023-03-14T19:22:29.274Z,38
2023-03-14T19:25:04.931Z,43
2023-03-14T19:27:35.639Z,47
2023-03-14T19:30:06.326Z,45
2023-03-14T19:32:35.844Z,43
2023-03-14T19:35:07.107Z,35
2023-03-14T19:37:36.239Z,36
2023-03-14T19:40:06.348Z,38
2023-03-14T19:42:39.337Z,40
2023-03-14T19:45:09.994Z,45
2023-03-14T19:47:40.366Z,45
2023-03-14T19:50:10.267Z,42
2023-03-14T19:52:40.757Z,44
2023-03-14T19:55:10.050Z,50
2023-03-14T19:57:40.114Z,47
2023-03-14T20:00:10.692Z,56
2023-03-14T20:02:42.221Z,50
2023-03-14T20:05:12.494Z,52
2023-03-14T20:07:44.319Z,48
2023-03-14T20:10:18.092Z,44
2023-03-14T20:12:51.164Z,46
2023-03-14T20:15:26.365Z,42
2023-03-14T20:17:56.955Z,36
2023-03-14T20:20:27.720Z,45
2023-03-14T20:22:59.296Z,38
2023-03-14T20:25:28.259Z,40
2023-03-14T20:27:59.577Z,40
2023-03-14T20:30:31.389Z,43
2023-03-14T20:33:05.826Z,37
2023-03-14T20:35:35.833Z,37
2023-03-14T20:38:10.554Z,41
2023-03-14T20:40:43.969Z,44
2023-03-14T20:43:15.369Z,46
2023-03-14T20:48:23.186Z,44
2023-03-14T20:50:54.998Z,48
2023-03-14T20:53:24.676Z,46
2023-03-14T20:55:53.126Z,51
2023-03-14T20:58:23.283Z,49
2023-03-14T21:00:53.908Z,44
2023-03-14T21:03:23.895Z,41
2023-03-14T21:05:54.055Z,41
2023-03-14T21:08:25.241Z,41
2023-03-14T21:10:56.670Z,46
2023-03-14T21:13:27.174Z,44
2023-03-14T21:15:57.585Z,44
2023-03-14T21:18:27.816Z,42
2023-03-14T21:21:00.207Z,43
2023-03-14T21:23:38.932Z,34
2023-03-14T21:26:07.381Z,41
2023-03-14T21:28:42.425Z,42
2023-03-14T21:31:13.881Z,52
2023-03-14T21:33:44.159Z,46
2023-03-14T21:36:14.509Z,42
2023-03-14T21:38:45.189Z,49
2023-03-14T21:41:13.839Z,37
2023-03-14T21:43:53.813Z,48
2023-03-14T21:46:23.987Z,42
2023-03-14T21:49:00.254Z,48
2023-03-14T21:51:31.866Z,49
2023-03-14T21:54:02.315Z,49
2023-03-14T21:56:34.003Z,48
2023-03-14T21:59:04.622Z,47
2023-03-14T22:01:36.152Z,40
2023-03-14T22:04:12.744Z,40
2023-03-14T22:06:42.807Z,36
2023-03-14T22:09:14.848Z,43
2023-03-14T22:11:45.009Z,33
2023-03-14T22:14:16.621Z,35
2023-03-14T22:16:49.902Z,36
2023-03-14T22:19:22.146Z,42
2023-03-14T22:21:53.822Z,50
2023-03-14T22:24:24.396Z,42
2023-03-14T22:26:55.072Z,46
2023-03-14T22:29:27.681Z,37
2023-03-14T22:31:59.369Z,43
2023-03-14T22:34:29.899Z,38
2023-03-14T22:37:00.320Z,42
2023-03-14T22:39:30.792Z,32
2023-03-14T22:42:06.007Z,45
2023-03-14T22:44:40.119Z,31
2023-03-14T22:47:12.423Z,32
2023-03-14T22:49:42.436Z,39
2023-03-14T22:54:48.021Z,30
2023-03-14T22:57:22.050Z,38
2023-03-14T22:59:52.143Z,41
2023-03-14T23:02:22.498Z,33
2023-03-14T23:04:53.954Z,40
2023-03-14T23:07:22.867Z,46
2023-03-14T23:09:53.640Z,37
2023-03-14T23:12:23.984Z,39
2023-03-14T23:14:54.727Z,35
2023-03-14T23:17:25.759Z,32
2023-03-14T23:19:54.416Z,50
2023-03-14T23:22:25.579Z,53
2023-03-14T23:24:55.698Z,36
2023-03-14T23:27:26.315Z,39
2023-03-14T23:29:56.685Z,35
2023-03-14T23:32:27.142Z,38
2023-03-14T23:34:57.257Z,36
2023-03-14T23:37:27.658Z,29
2023-03-14T23:39:58.166Z,37
2023-03-14T23:42:30.842Z,38
2023-03-14T23:45:02.296Z,35
2023-03-14T23:47:32.719Z,37
2023-03-14T23:50:03.766Z,43
2023-03-14T23:52:34.179Z,38
2023-03-14T23:55:04.778Z,37
2023-03-14T23:57:36.260Z,39
